Time;durP1;ratioP1;P1;durP2;ratioP2;P2;SDS_P1;SDS_P2;PMS_P1;PMS_P2;Temp;Humidity;BMP_temperature;BMP_pressure;BME280_temperature;BME280_humidity;BME280_pressure;Samples;Min_cycle;Max_cycle;Signal;HPM_P1;HPM_P2
2020/12/05 00:01:53;;;;;;;23.07;11.97;;;8.10;99.90;;;;;;4240471;28;20467;-43
2020/12/05 00:03:56;;;;;;;24.37;12.40;;;8.10;99.90;;;;;;4238885;28;20027;-40
2020/12/05 00:05:57;;;;;;;24.50;13.10;;;8.10;99.90;;;;;;4240756;28;20868;-44
2020/12/05 00:07:58;;;;;;;28.00;14.10;;;8.10;99.90;;;;;;4238931;28;20051;-43
2020/12/05 00:09:59;;;;;;;25.77;13.27;;;8.00;99.90;;;;;;4240486;28;20051;-41
2020/12/05 00:12:05;;;;;;;24.80;12.53;;;8.00;99.90;;;;;;4239862;28;20030;-39
2020/12/05 00:14:06;;;;;;;24.80;12.07;;;7.90;99.90;;;;;;4240179;28;20039;-44
2020/12/05 00:16:07;;;;;;;22.90;12.80;;;7.80;99.90;;;;;;4239236;28;20027;-41
2020/12/05 00:18:08;;;;;;;20.97;12.50;;;7.70;99.90;;;;;;4241029;28;20072;-43
2020/12/05 00:20:09;;;;;;;23.47;11.63;;;7.70;99.90;;;;;;4239236;28;20103;-40
2020/12/05 00:22:10;;;;;;;20.23;11.57;;;7.70;99.90;;;;;;4239310;28;20574;-40
2020/12/05 00:24:12;;;;;;;23.23;13.10;;;7.80;99.90;;;;;;4240078;28;20491;-53
2020/12/05 00:26:17;;;;;;;23.73;12.63;;;7.80;99.90;;;;;;4238356;28;20638;-42
2020/12/05 00:28:18;;;;;;;18.90;10.87;;;7.80;99.90;;;;;;4240044;28;20035;-42
2020/12/05 00:30:19;;;;;;;23.33;11.90;;;7.70;99.90;;;;;;4238410;28;20108;-43
2020/12/05 00:32:21;;;;;;;21.13;11.73;;;7.70;99.90;;;;;;4241195;28;20084;-44
2020/12/05 00:34:22;;;;;;;20.13;12.87;;;7.60;99.90;;;;;;4238403;28;20035;-42
2020/12/05 00:36:24;;;;;;;22.50;12.97;;;7.60;99.90;;;;;;4239885;28;20043;-42
2020/12/05 00:38:25;;;;;;;25.60;12.77;;;7.60;99.90;;;;;;4239511;28;20027;-41
2020/12/05 00:40:26;;;;;;;23.50;12.53;;;7.60;99.90;;;;;;4241080;28;20451;-41
2020/12/05 00:42:27;;;;;;;21.47;11.60;;;7.60;99.90;;;;;;4238756;28;20051;-42
2020/12/05 00:44:28;;;;;;;25.00;12.13;;;7.60;99.90;;;;;;4240887;28;20079;-40
2020/12/05 00:46:30;;;;;;;22.67;11.77;;;7.70;99.90;;;;;;4239084;27;20517;-42
2020/12/05 00:48:31;;;;;;;24.57;11.50;;;7.70;99.90;;;;;;4241507;27;20092;-43
2020/12/05 00:50:32;;;;;;;22.43;12.20;;;7.70;99.90;;;;;;4242011;27;20027;-40
2020/12/05 00:52:34;;;;;;;23.00;12.53;;;7.80;99.90;;;;;;4243598;27;20027;-40
2020/12/05 00:54:35;;;;;;;23.13;11.93;;;7.80;99.90;;;;;;4243308;27;20090;-41
2020/12/05 00:56:36;;;;;;;19.90;11.37;;;7.80;99.90;;;;;;4242819;27;20559;-47
2020/12/05 00:58:38;;;;;;;24.50;12.10;;;7.90;99.90;;;;;;4242549;27;20043;-49
2020/12/05 01:00:39;;;;;;;22.33;11.03;;;7.80;99.90;;;;;;4242711;27;20789;-48
2020/12/05 01:02:41;;;;;;;22.50;11.87;;;7.70;99.90;;;;;;4242978;27;20039;-42
2020/12/05 01:04:42;;;;;;;21.43;11.80;;;7.80;99.90;;;;;;4223518;28;20044;-40
2020/12/05 01:06:44;;;;;;;21.37;10.93;;;7.70;99.90;;;;;;4243057;27;20088;-42
2020/12/05 01:08:47;;;;;;;22.77;12.47;;;7.60;99.90;;;;;;4241389;27;20043;-42
2020/12/05 01:10:48;;;;;;;26.27;12.40;;;7.60;99.90;;;;;;4242519;27;20432;-43
2020/12/05 01:12:49;;;;;;;20.03;10.73;;;7.60;99.90;;;;;;4223352;28;20093;-41
2020/12/05 01:14:51;;;;;;;19.80;11.87;;;7.60;99.90;;;;;;4242716;27;20046;-43
2020/12/05 01:16:52;;;;;;;22.73;12.40;;;7.60;99.90;;;;;;4241523;27;20092;-42
2020/12/05 01:18:54;;;;;;;24.77;12.13;;;7.60;99.90;;;;;;4242468;27;20035;-40
2020/12/05 01:20:55;;;;;;;22.33;12.03;;;7.50;99.90;;;;;;4241284;27;20051;-40
2020/12/05 01:22:56;;;;;;;23.27;12.63;;;7.30;99.90;;;;;;4242148;27;20039;-41
2020/12/05 01:24:58;;;;;;;20.13;12.47;;;7.30;99.90;;;;;;4241895;27;20036;-40
2020/12/05 01:26:59;;;;;;;21.40;11.23;;;7.30;99.90;;;;;;4241898;27;20039;-44
2020/12/05 01:29:00;;;;;;;26.23;13.10;;;7.20;99.90;;;;;;4242405;27;20047;-40
2020/12/05 01:31:03;;;;;;;19.90;12.13;;;7.20;99.90;;;;;;4241247;27;20042;-42
2020/12/05 01:33:04;;;;;;;23.07;13.60;;;7.10;99.90;;;;;;4242499;27;20080;-39
2020/12/05 01:35:05;;;;;;;26.90;13.30;;;7.00;99.90;;;;;;4240955;27;20076;-41
2020/12/05 01:37:07;;;;;;;25.23;13.10;;;6.90;99.90;;;;;;4240795;27;20092;-39
2020/12/05 01:39:08;;;;;;;23.20;12.33;;;6.90;99.90;;;;;;4240793;27;20089;-40
2020/12/05 01:41:09;;;;;;;26.37;13.30;;;6.80;99.90;;;;;;4242187;27;20043;-40
2020/12/05 01:43:10;;;;;;;26.13;12.80;;;6.70;99.90;;;;;;4223029;28;20623;-41
2020/12/05 01:45:11;;;;;;;27.27;13.30;;;6.70;99.90;;;;;;4242887;27;20039;-40
2020/12/05 01:47:13;;;;;;;25.73;14.67;;;6.60;99.90;;;;;;4223284;28;20089;-40
2020/12/05 01:49:18;;;;;;;22.50;12.50;;;6.60;99.90;;;;;;4241938;27;20204;-40
2020/12/05 01:51:19;;;;;;;25.43;13.43;;;6.50;99.90;;;;;;4240657;27;20076;-40
2020/12/05 01:53:22;;;;;;;27.83;13.73;;;6.40;99.90;;;;;;4224052;28;20047;-42
2020/12/05 01:55:23;;;;;;;22.33;12.43;;;6.30;99.90;;;;;;4243779;27;20057;-45
2020/12/05 01:57:25;;;;;;;25.53;14.70;;;6.30;99.90;;;;;;4241841;27;20088;-41
2020/12/05 01:59:26;;;;;;;27.27;13.63;;;6.20;99.90;;;;;;4241724;27;20047;-41
2020/12/05 02:01:28;;;;;;;27.03;14.07;;;6.20;99.90;;;;;;4241268;27;20084;-40
2020/12/05 02:03:29;;;;;;;38.67;15.30;;;6.10;99.90;;;;;;4242496;27;20442;-40
2020/12/05 02:05:51;;;;;;;28.57;14.40;;;6.10;99.90;;;;;;4240715;27;20440;-44
2020/12/05 02:08:03;;;;;;;31.70;14.83;;;6.00;99.90;;;;;;4241486;27;20043;-40
2020/12/05 02:10:09;;;;;;;27.37;15.30;;;6.00;99.90;;;;;;4240650;27;20495;-44
2020/12/05 02:12:22;;;;;;;25.37;14.10;;;5.90;99.90;;;;;;4242341;27;20019;-42
2020/12/05 02:14:27;;;;;;;28.17;14.10;;;6.00;99.90;;;;;;4240220;27;20672;-41
2020/12/05 02:16:28;;;;;;;26.77;14.30;;;6.00;99.90;;;;;;4242223;27;20267;-44
2020/12/05 02:18:31;;;;;;;30.33;14.63;;;6.00;99.90;;;;;;4241165;27;20244;-40
2020/12/05 02:20:37;;;;;;;29.03;14.63;;;6.00;99.90;;;;;;4241072;27;20267;-42
2020/12/05 02:22:45;;;;;;;31.13;15.47;;;5.90;99.90;;;;;;4240761;27;20264;-40
2020/12/05 02:24:47;;;;;;;28.80;14.63;;;5.90;99.90;;;;;;4241699;27;21156;-44
2020/12/05 02:26:48;;;;;;;30.17;14.90;;;5.90;99.90;;;;;;4240406;27;20313;-41
2020/12/05 02:28:49;;;;;;;32.67;16.33;;;5.90;99.90;;;;;;4242467;27;20287;-40
2020/12/05 02:30:50;;;;;;;30.57;15.30;;;5.90;99.90;;;;;;4239749;27;20264;-41
2020/12/05 02:32:52;;;;;;;28.40;15.00;;;5.90;99.90;;;;;;4242009;27;20310;-42
2020/12/05 02:34:53;;;;;;;30.10;15.73;;;5.80;99.90;;;;;;4240823;27;20043;-41
2020/12/05 02:36:56;;;;;;;31.90;16.13;;;5.70;99.90;;;;;;4241718;27;20795;-46
2020/12/05 02:39:10;;;;;;;28.43;14.57;;;5.70;99.90;;;;;;4239665;27;20271;-41
2020/12/05 02:41:11;;;;;;;29.77;16.33;;;5.70;99.90;;;;;;4242211;27;20305;-42
2020/12/05 02:43:12;;;;;;;29.27;14.13;;;5.60;99.90;;;;;;4239810;27;20316;-40
2020/12/05 02:45:13;;;;;;;29.37;14.33;;;5.60;99.90;;;;;;4241716;27;20677;-49
2020/12/05 02:47:15;;;;;;;32.27;15.50;;;5.60;99.90;;;;;;4241092;27;20259;-40
2020/12/05 02:49:17;;;;;;;30.00;14.33;;;5.60;99.90;;;;;;4240721;27;20283;-43
2020/12/05 02:51:18;;;;;;;31.63;16.20;;;5.60;99.90;;;;;;4241354;27;20747;-46
2020/12/05 02:53:19;;;;;;;28.03;14.23;;;5.60;99.90;;;;;;4240865;27;20791;-43
2020/12/05 02:55:20;;;;;;;27.13;14.60;;;5.60;99.90;;;;;;4241664;27;20316;-39
2020/12/05 02:57:21;;;;;;;28.80;15.53;;;5.50;99.90;;;;;;4222407;28;20260;-39
2020/12/05 02:59:22;;;;;;;31.40;15.70;;;5.40;99.90;;;;;;4241981;27;20132;-40
2020/12/05 03:01:23;;;;;;;31.33;16.13;;;5.30;99.90;;;;;;4240486;27;20713;-44
2020/12/05 03:03:24;;;;;;;29.53;15.83;;;5.10;99.90;;;;;;4240884;27;20263;-43
2020/12/05 03:05:25;;;;;;;32.80;16.03;;;5.00;99.90;;;;;;4240463;27;20781;-39
2020/12/05 03:07:27;;;;;;;30.77;15.17;;;4.90;99.90;;;;;;4241328;27;20321;-43
2020/12/05 03:09:28;;;;;;;31.30;15.00;;;4.80;99.90;;;;;;4240679;27;20361;-41
2020/12/05 03:11:30;;;;;;;34.03;17.07;;;4.70;99.90;;;;;;4240672;27;20283;-40
2020/12/05 03:13:31;;;;;;;31.43;16.50;;;4.60;99.90;;;;;;4240445;27;20398;-41
2020/12/05 03:15:32;;;;;;;31.57;15.83;;;4.60;99.90;;;;;;4238990;27;20328;-39
2020/12/05 03:17:34;;;;;;;30.30;15.23;;;4.60;99.90;;;;;;4239986;27;20312;-42
2020/12/05 03:19:35;;;;;;;31.73;15.77;;;4.60;99.90;;;;;;4240629;27;20923;-40
2020/12/05 03:21:36;;;;;;;30.23;15.67;;;4.60;99.90;;;;;;4240852;27;20312;-41
2020/12/05 03:23:37;;;;;;;29.77;15.40;;;4.60;99.90;;;;;;4240567;27;20355;-40
2020/12/05 03:25:38;;;;;;;29.33;15.63;;;4.60;99.90;;;;;;4240370;27;20264;-42
2020/12/05 03:27:40;;;;;;;34.73;16.93;;;4.50;99.90;;;;;;4239373;27;20775;-40
2020/12/05 03:29:41;;;;;;;35.07;16.23;;;4.40;99.90;;;;;;4241076;27;20271;-42
2020/12/05 03:31:48;;;;;;;31.60;16.30;;;4.30;99.90;;;;;;4239607;27;20323;-42
2020/12/05 03:33:49;;;;;;;32.90;16.43;;;4.20;99.90;;;;;;4240364;27;20287;-41
2020/12/05 03:35:51;;;;;;;35.17;17.73;;;4.20;99.90;;;;;;4239445;27;20394;-43
2020/12/05 03:37:53;;;;;;;34.63;16.33;;;4.20;99.90;;;;;;4239626;27;20306;-38
2020/12/05 03:39:54;;;;;;;32.87;16.27;;;4.20;99.90;;;;;;4240333;27;20271;-40
2020/12/05 03:41:55;;;;;;;32.87;16.60;;;4.20;99.90;;;;;;4241510;27;20263;-41
2020/12/05 03:43:56;;;;;;;37.10;17.37;;;4.30;99.90;;;;;;4240513;27;20272;-46
2020/12/05 03:45:57;;;;;;;35.90;16.23;;;4.40;99.90;;;;;;4241228;27;20735;-42
2020/12/05 03:47:58;;;;;;;32.03;15.13;;;4.50;99.90;;;;;;4220676;28;20295;-40
2020/12/05 03:49:59;;;;;;;29.57;15.07;;;4.50;99.90;;;;;;4239500;27;20767;-44
2020/12/05 03:52:02;;;;;;;33.00;16.47;;;4.60;99.90;;;;;;4240257;27;20718;-44
2020/12/05 03:54:03;;;;;;;28.63;14.57;;;4.80;99.90;;;;;;4239669;27;20263;-39
2020/12/05 03:56:04;;;;;;;31.40;16.30;;;4.80;99.90;;;;;;4240355;27;20268;-41
2020/12/05 03:58:05;;;;;;;32.00;15.80;;;4.90;99.90;;;;;;4238711;27;20271;-43
2020/12/05 04:00:07;;;;;;;29.80;15.67;;;4.90;99.90;;;;;;4240811;27;20308;-43
2020/12/05 04:02:08;;;;;;;35.00;15.10;;;4.90;99.90;;;;;;4240060;27;20986;-53
2020/12/05 04:04:09;;;;;;;33.23;16.20;;;4.80;99.90;;;;;;4240959;28;20263;-42
2020/12/05 04:06:12;;;;;;;29.97;15.33;;;4.80;99.90;;;;;;4239556;28;20256;-40
2020/12/05 04:08:13;;;;;;;26.07;14.27;;;4.80;99.90;;;;;;4240548;28;21378;-43
2020/12/05 04:10:14;;;;;;;29.43;15.67;;;4.80;99.90;;;;;;4239508;28;20320;-41
2020/12/05 04:12:15;;;;;;;31.70;15.93;;;4.70;99.90;;;;;;4240468;28;20758;-47
2020/12/05 04:14:16;;;;;;;36.23;16.23;;;4.60;99.90;;;;;;4238787;28;20279;-42
2020/12/05 04:16:18;;;;;;;32.10;16.77;;;4.50;99.90;;;;;;4240470;28;20308;-44
2020/12/05 04:18:19;;;;;;;32.17;16.47;;;4.40;99.90;;;;;;4238990;28;20327;-45
2020/12/05 04:20:20;;;;;;;32.53;16.87;;;4.40;99.90;;;;;;4238151;28;20324;-43
2020/12/05 04:22:21;;;;;;;32.67;16.50;;;4.50;99.90;;;;;;4241883;27;20300;-40
2020/12/05 04:24:22;;;;;;;37.47;15.63;;;4.50;99.90;;;;;;4243107;27;20771;-41
2020/12/05 04:26:24;;;;;;;32.93;15.47;;;4.60;99.90;;;;;;4243279;27;20332;-40
2020/12/05 04:28:26;;;;;;;30.20;16.47;;;4.60;99.90;;;;;;4224784;28;20295;-42
2020/12/05 04:30:27;;;;;;;31.93;15.47;;;4.60;99.90;;;;;;4244013;27;20363;-42
2020/12/05 04:32:28;;;;;;;31.80;15.73;;;4.50;99.90;;;;;;4242962;27;20271;-43
2020/12/05 04:34:30;;;;;;;32.77;16.83;;;4.60;99.90;;;;;;4244179;27;20263;-40
2020/12/05 04:36:31;;;;;;;36.53;16.63;;;4.50;99.90;;;;;;4243088;27;20316;-40
2020/12/05 04:38:32;;;;;;;36.27;17.07;;;4.40;99.90;;;;;;4243317;27;20665;-43
2020/12/05 04:40:33;;;;;;;35.63;15.23;;;4.40;99.90;;;;;;4242752;27;20259;-43
2020/12/05 04:42:43;;;;;;;37.20;18.53;;;4.30;99.90;;;;;;4243987;27;20649;-39
2020/12/05 04:44:46;;;;;;;36.67;16.80;;;4.30;99.90;;;;;;4241833;27;20351;-42
2020/12/05 04:46:49;;;;;;;36.90;17.13;;;4.40;99.90;;;;;;4243252;27;20031;-41
2020/12/05 04:48:52;;;;;;;35.10;16.90;;;4.40;99.90;;;;;;4241706;27;20302;-39
2020/12/05 04:50:54;;;;;;;34.57;16.63;;;4.40;99.90;;;;;;4243764;27;20645;-44
2020/12/05 04:53:06;;;;;;;34.20;18.00;;;4.40;99.90;;;;;;4241935;27;20320;-40
2020/12/05 04:55:08;;;;;;;35.13;16.43;;;4.40;99.90;;;;;;4243104;27;20271;-45
2020/12/05 04:57:19;;;;;;;40.40;19.13;;;4.40;99.90;;;;;;4242421;27;20754;-38
2020/12/05 04:59:20;;;;;;;45.33;20.83;;;4.40;99.90;;;;;;4242064;27;20348;-41
2020/12/05 05:01:25;;;;;;;32.60;16.90;;;4.40;99.90;;;;;;4241478;27;20275;-42
2020/12/05 05:03:27;;;;;;;39.47;17.77;;;4.30;99.90;;;;;;4242554;27;20259;-40
2020/12/05 05:05:28;;;;;;;32.67;16.03;;;4.40;99.90;;;;;;4240810;27;20268;-40
2020/12/05 05:07:31;;;;;;;33.30;17.17;;;4.40;99.90;;;;;;4241391;27;20897;-43
2020/12/05 05:09:32;;;;;;;32.90;16.13;;;4.50;99.90;;;;;;4239009;27;20299;-39
2020/12/05 05:11:37;;;;;;;34.20;15.03;;;4.50;99.90;;;;;;4247129;27;20793;-43
2020/12/05 05:14:13;;;;;;;29.37;14.17;;;4.60;99.90;;;;;;4258231;27;20323;-43
2020/12/05 05:16:15;;;;;;;33.27;15.80;;;4.60;99.90;;;;;;4258530;27;21087;-42
2020/12/05 05:18:16;;;;;;;35.00;17.50;;;4.70;99.90;;;;;;4257694;27;20316;-43
2020/12/05 05:20:22;;;;;;;35.60;17.10;;;4.80;99.90;;;;;;4258647;27;21021;-47
2020/12/05 05:22:23;;;;;;;37.90;16.90;;;4.80;99.90;;;;;;4259120;27;20319;-40
2020/12/05 05:24:24;;;;;;;34.20;17.07;;;4.80;99.90;;;;;;4258964;27;20263;-48
2020/12/05 05:26:26;;;;;;;44.40;20.07;;;4.80;99.90;;;;;;4258487;27;20327;-43
2020/12/05 05:28:32;;;;;;;31.60;16.10;;;4.80;99.90;;;;;;4253248;27;20352;-48
2020/12/05 05:30:33;;;;;;;29.37;15.23;;;4.70;99.90;;;;;;4242229;27;20348;-42
2020/12/05 05:32:43;;;;;;;26.93;14.40;;;4.50;99.90;;;;;;4239618;27;20283;-41
2020/12/05 05:34:46;;;;;;;29.17;13.97;;;4.40;99.90;;;;;;4241194;27;20267;-42
2020/12/05 05:36:48;;;;;;;31.27;14.33;;;4.30;99.90;;;;;;4240372;27;20279;-40
2020/12/05 05:38:58;;;;;;;29.37;13.47;;;4.20;99.90;;;;;;4240304;27;20271;-41
2020/12/05 05:41:12;;;;;;;29.88;14.20;;;4.20;99.90;;;;;;4240070;27;20251;-40
2020/12/05 05:43:18;;;;;;;26.97;14.13;;;4.20;99.90;;;;;;4241822;27;20057;-40
2020/12/05 05:45:22;;;;;;;25.87;12.90;;;4.20;99.90;;;;;;4239277;27;20747;-47
2020/12/05 05:47:23;;;;;;;28.13;14.00;;;4.10;99.90;;;;;;4240209;27;20410;-41
2020/12/05 05:49:32;;;;;;;30.07;14.37;;;4.10;99.90;;;;;;4240756;27;20279;-41
2020/12/05 05:51:41;;;;;;;26.37;13.03;;;4.10;99.90;;;;;;4241841;27;20783;-41
2020/12/05 05:53:43;;;;;;;27.17;13.83;;;4.20;99.90;;;;;;4240429;27;20746;-43
2020/12/05 05:55:48;;;;;;;29.33;15.43;;;4.20;99.90;;;;;;4240488;27;20280;-44
2020/12/05 05:57:58;;;;;;;29.40;15.20;;;4.20;99.90;;;;;;4240279;27;20347;-40
2020/12/05 06:00:01;;;;;;;27.63;14.93;;;4.20;99.90;;;;;;4241328;27;20279;-42
2020/12/05 06:02:05;;;;;;;27.60;14.03;;;4.20;99.90;;;;;;4240164;27;20064;-43
2020/12/05 06:04:13;;;;;;;29.83;13.37;;;4.20;99.90;;;;;;4241276;27;20263;-42
2020/12/05 06:06:16;;;;;;;29.60;13.47;;;4.30;99.90;;;;;;4239508;27;20320;-41
2020/12/05 06:08:26;;;;;;;27.37;14.07;;;4.40;99.90;;;;;;4241298;27;20291;-45
2020/12/05 06:10:27;;;;;;;27.85;13.50;;;4.60;99.90;;;;;;4240449;27;20622;-42
2020/12/05 06:12:33;;;;;;;29.57;14.43;;;4.80;99.90;;;;;;4240182;27;20035;-49
2020/12/05 06:14:35;;;;;;;27.90;14.43;;;4.90;99.90;;;;;;4240086;27;20270;-43
2020/12/05 06:16:40;;;;;;;26.30;13.73;;;5.00;99.90;;;;;;4239788;27;20275;-42
2020/12/05 06:18:41;;;;;;;25.00;12.90;;;5.10;99.90;;;;;;4238349;27;20324;-43
2020/12/05 06:20:45;;;;;;;25.33;12.73;;;5.20;99.90;;;;;;4239908;27;20332;-41
2020/12/05 06:22:51;;;;;;;25.87;13.37;;;5.30;99.90;;;;;;4241100;27;20593;-41
2020/12/05 06:25:09;;;;;;;24.80;12.87;;;5.40;99.90;;;;;;4240321;27;20335;-40
2020/12/05 06:27:13;;;;;;;35.53;15.43;;;5.50;99.90;;;;;;4239781;27;20361;-40
2020/12/05 06:29:16;;;;;;;32.43;17.37;;;5.50;99.90;;;;;;4239670;27;20291;-41
2020/12/05 06:31:17;;;;;;;32.17;15.73;;;5.40;99.90;;;;;;4240045;27;20283;-40
2020/12/05 06:33:44;;;;;;;29.23;15.13;;;5.40;99.90;;;;;;4240066;27;20267;-41
2020/12/05 06:35:45;;;;;;;26.87;13.57;;;5.50;99.90;;;;;;4239770;27;20650;-42
2020/12/05 06:37:46;;;;;;;26.53;13.10;;;5.80;99.90;;;;;;4239493;27;20308;-53
2020/12/05 06:40:05;;;;;;;27.20;14.73;;;5.80;99.90;;;;;;4240015;27;20332;-38
2020/12/05 06:42:18;;;;;;;27.47;13.97;;;5.80;99.90;;;;;;4239812;27;20382;-44
2020/12/05 06:44:19;;;;;;;29.87;15.83;;;5.70;99.90;;;;;;4240030;27;20434;-44
2020/12/05 06:46:57;;;;;;;26.80;15.30;;;5.90;99.90;;;;;;4239301;27;20308;-51
2020/12/05 06:48:58;;;;;;;22.93;12.53;;;6.00;99.90;;;;;;4239604;27;21312;-39
2020/12/05 06:50:59;;;;;;;22.87;12.87;;;6.20;99.90;;;;;;4239400;27;20668;-44
2020/12/05 06:53:01;;;;;;;24.60;13.43;;;6.40;99.90;;;;;;4240421;27;20026;-48
2020/12/05 06:55:09;;;;;;;26.37;14.03;;;6.70;99.90;;;;;;4239379;27;20050;-44
2020/12/05 06:57:13;;;;;;;29.20;14.33;;;6.90;99.90;;;;;;4240045;27;20096;-49
2020/12/05 06:59:23;;;;;;;26.53;14.43;;;7.20;99.90;;;;;;4238930;27;20039;-49
2020/12/05 07:01:29;;;;;;;;;;;7.40;99.90;;;;;;4240457;27;20047;-42
2020/12/05 07:03:31;;;;;;;21.93;12.17;;;7.60;99.90;;;;;;4237847;27;19952;-41
2020/12/05 07:05:37;;;;;;;24.10;13.00;;;7.80;99.90;;;;;;4240141;27;20023;-42
2020/12/05 07:07:38;;;;;;;22.53;12.53;;;7.80;99.90;;;;;;4236083;27;20062;-45
2020/12/05 07:09:46;;;;;;;19.20;12.33;;;7.90;99.90;;;;;;4240127;27;20064;-45
2020/12/05 07:11:47;;;;;;;29.27;14.40;;;8.00;99.90;;;;;;4238745;27;20042;-45
2020/12/05 07:13:50;;;;;;;24.87;14.13;;;8.10;99.90;;;;;;4237938;27;20039;-43
2020/12/05 07:16:07;;;;;;;25.20;14.93;;;8.00;99.90;;;;;;4238318;27;20100;-38
2020/12/05 07:18:09;;;;;;;29.30;15.63;;;7.90;99.90;;;;;;4239891;27;20924;-40
2020/12/05 07:20:10;;;;;;;28.70;16.47;;;7.90;99.90;;;;;;4219565;28;20043;-42
2020/12/05 07:22:11;;;;;;;25.40;14.53;;;8.00;99.90;;;;;;4239246;27;20047;-46
2020/12/05 07:24:12;;;;;;;24.37;13.73;;;8.00;99.90;;;;;;4238556;27;20531;-50
2020/12/05 07:26:14;;;;;;;25.57;13.93;;;8.00;99.90;;;;;;4240227;27;20070;-42
2020/12/05 07:28:17;;;;;;;24.27;13.10;;;8.20;99.90;;;;;;4238076;27;20480;-49
2020/12/05 07:30:18;;;;;;;21.77;12.80;;;8.40;99.90;;;;;;4239376;27;20084;-41
2020/12/05 07:32:19;;;;;;;23.53;13.40;;;8.70;99.90;;;;;;4240030;27;20019;-46
2020/12/05 07:34:21;;;;;;;23.23;13.20;;;8.60;99.90;;;;;;4221260;28;20112;-39
2020/12/05 07:36:22;;;;;;;27.80;16.03;;;8.50;99.90;;;;;;4226490;27;20478;-41
2020/12/05 07:38:23;;;;;;;24.27;14.57;;;8.40;99.90;;;;;;4221711;28;20020;-40
2020/12/05 07:40:28;;;;;;;25.47;14.00;;;8.40;99.90;;;;;;4223442;27;20452;-44
2020/12/05 07:42:37;;;;;;;33.30;15.77;;;8.30;99.90;;;;;;4237674;27;20127;-42
2020/12/05 07:44:38;;;;;;;30.03;16.60;;;8.40;99.90;;;;;;4238653;27;20554;-47
2020/12/05 07:46:39;;;;;;;34.43;17.30;;;8.30;99.90;;;;;;4238202;27;20746;-45
2020/12/05 07:48:41;;;;;;;34.07;17.70;;;8.30;99.90;;;;;;4238509;27;20436;-45
2020/12/05 07:50:43;;;;;;;28.43;15.43;;;8.30;99.90;;;;;;4236987;27;20088;-45
2020/12/05 07:52:44;;;;;;;26.27;14.50;;;8.20;99.90;;;;;;4238759;27;20043;-43
2020/12/05 07:54:55;;;;;;;29.53;16.40;;;8.20;99.90;;;;;;4238051;27;20031;-42
2020/12/05 07:57:06;;;;;;;30.73;16.97;;;8.10;99.90;;;;;;4238180;27;20106;-44
2020/12/05 07:59:08;;;;;;;24.37;15.10;;;8.20;99.90;;;;;;4238123;27;20092;-45
2020/12/05 08:01:15;;;;;;;27.70;15.80;;;8.30;99.90;;;;;;4239275;27;20095;-43
2020/12/05 08:03:29;;;;;;;30.37;14.93;;;8.50;99.90;;;;;;4236905;27;20099;-39
2020/12/05 08:05:43;;;;;;;21.87;13.40;;;8.60;99.90;;;;;;4238518;28;20448;-44
2020/12/05 08:07:53;;;;;;;23.37;12.93;;;8.80;99.90;;;;;;4236504;28;20088;-51
2020/12/05 08:09:54;;;;;;;23.67;12.60;;;8.90;99.90;;;;;;4236867;28;20104;-43
2020/12/05 08:11:56;;;;;;;19.83;11.87;;;9.00;99.90;;;;;;4237180;28;20031;-42
2020/12/05 08:13:57;;;;;;;25.33;12.90;;;9.10;99.90;;;;;;4238713;28;20031;-41
2020/12/05 08:16:01;;;;;;;23.37;13.77;;;9.10;99.90;;;;;;4236306;28;20416;-44
2020/12/05 08:18:03;;;;;;;27.80;12.93;;;9.20;99.90;;;;;;4240378;27;20533;-46
2020/12/05 08:20:04;;;;;;;20.40;12.07;;;9.20;99.90;;;;;;4237345;28;20036;-43
2020/12/05 08:22:09;;;;;;;23.97;13.63;;;9.30;99.90;;;;;;4238305;28;20548;-42
2020/12/05 08:24:10;;;;;;;27.97;16.00;;;9.30;99.90;;;;;;4237825;28;20073;-42
2020/12/05 08:26:15;;;;;;;27.43;16.10;;;9.40;99.90;;;;;;4238066;28;20043;-40
2020/12/05 08:28:20;;;;;;;26.27;15.10;;;9.40;99.90;;;;;;4239286;28;20917;-45
2020/12/05 08:30:21;;;;;;;34.97;18.87;;;9.50;99.90;;;;;;4237263;28;20055;-40
2020/12/05 08:32:24;;;;;;;28.07;15.27;;;9.60;99.90;;;;;;4238502;28;20047;-39
2020/12/05 08:34:32;;;;;;;28.57;16.43;;;9.80;99.90;;;;;;4237914;28;20080;-40
2020/12/05 08:36:42;;;;;;;23.33;13.47;;;9.90;99.90;;;;;;4238876;28;20540;-40
2020/12/05 08:38:44;;;;;;;21.85;12.48;;;10.10;99.90;;;;;;4238330;28;20027;-45
2020/12/05 08:40:45;;;;;;;22.43;10.57;;;10.20;99.90;;;;;;4239141;28;20088;-39
2020/12/05 08:42:49;;;;;;;22.63;11.13;;;10.40;99.90;;;;;;4236954;28;20080;-42
2020/12/05 08:44:52;;;;;;;18.73;10.90;;;10.40;99.90;;;;;;4239248;28;20035;-48
2020/12/05 08:47:01;;;;;;;19.73;10.90;;;10.30;99.90;;;;;;4237040;28;20088;-48
2020/12/05 08:49:16;;;;;;;17.33;10.33;;;10.30;99.90;;;;;;4238266;28;20403;-43
2020/12/05 08:51:25;;;;;;;18.37;11.33;;;10.40;99.90;;;;;;4218875;28;20051;-43
2020/12/05 08:53:26;;;;;;;16.07;10.00;;;10.50;99.90;;;;;;4238161;28;20888;-50
2020/12/05 08:55:29;;;;;;;17.90;10.03;;;10.50;99.90;;;;;;4237937;28;20023;-39
2020/12/05 08:57:30;;;;;;;31.07;16.40;;;10.60;99.90;;;;;;4238221;28;20084;-46
2020/12/05 08:59:31;;;;;;;25.27;14.73;;;10.50;99.90;;;;;;4237424;28;20406;-45
2020/12/05 09:01:43;;;;;;;27.60;14.83;;;10.50;99.90;;;;;;4239425;28;20027;-40
2020/12/05 09:03:44;;;;;;;26.13;13.97;;;10.40;99.90;;;;;;4237468;28;20773;-42
2020/12/05 09:05:47;;;;;;;23.23;12.70;;;10.40;99.90;;;;;;4237845;28;20046;-45
2020/12/05 09:07:57;;;;;;;21.87;12.03;;;10.40;99.90;;;;;;4237763;27;20027;-44
2020/12/05 09:09:58;;;;;;;22.00;13.00;;;10.20;99.90;;;;;;4241021;27;20804;-43
2020/12/05 09:12:10;;;;;;;20.17;11.10;;;10.30;99.90;;;;;;4241303;27;20491;-51
2020/12/05 09:14:11;;;;;;;20.60;11.37;;;10.30;99.90;;;;;;4242200;27;20027;-48
2020/12/05 09:16:12;;;;;;;20.70;11.93;;;10.20;99.90;;;;;;4240375;27;20101;-43
2020/12/05 09:18:13;;;;;;;18.67;12.23;;;10.30;99.90;;;;;;4240766;27;20101;-45
2020/12/05 09:20:19;;;;;;;24.63;12.17;;;10.30;99.90;;;;;;4240795;27;20091;-46
2020/12/05 09:22:33;;;;;;;22.47;12.83;;;10.40;99.90;;;;;;4241241;27;20048;-45
2020/12/05 09:24:42;;;;;;;21.27;12.43;;;10.50;99.90;;;;;;4241557;27;20064;-39
2020/12/05 09:26:55;;;;;;;21.57;12.40;;;10.50;99.90;;;;;;4241610;27;20023;-43
2020/12/05 09:28:56;;;;;;;20.63;12.53;;;10.60;99.90;;;;;;4222503;28;20051;-41
2020/12/05 09:30:58;;;;;;;27.47;13.50;;;10.70;99.90;;;;;;4239514;27;20085;-46
2020/12/05 09:33:06;;;;;;;23.80;12.63;;;10.70;99.90;;;;;;4241586;27;20088;-50
2020/12/05 09:35:09;;;;;;;19.70;11.57;;;10.90;99.90;;;;;;4239147;27;20031;-43
2020/12/05 09:37:12;;;;;;;18.17;11.03;;;11.10;99.90;;;;;;4240541;27;20043;-41
2020/12/05 09:39:13;;;;;;;20.03;11.43;;;11.10;99.90;;;;;;4222395;28;20027;-42
2020/12/05 09:41:14;;;;;;;23.93;11.27;;;11.10;99.90;;;;;;4240977;27;20039;-43
2020/12/05 09:43:15;;;;;;;17.47;10.80;;;10.90;99.90;;;;;;4221450;28;20511;-46
2020/12/05 09:45:16;;;;;;;27.63;12.63;;;10.80;99.90;;;;;;4241835;27;20027;-44
2020/12/05 09:47:18;;;;;;;21.93;11.33;;;10.80;99.90;;;;;;4240659;27;20392;-47
2020/12/05 09:49:19;;;;;;;22.73;12.20;;;10.80;99.90;;;;;;4240348;27;20088;-47
2020/12/05 09:51:20;;;;;;;20.60;13.07;;;10.90;99.90;;;;;;4240331;27;20035;-45
2020/12/05 09:53:21;;;;;;;21.37;11.73;;;10.90;99.90;;;;;;4240913;27;20080;-51
2020/12/05 09:55:22;;;;;;;24.03;11.33;;;10.90;99.90;;;;;;4240603;27;20076;-38
2020/12/05 09:57:24;;;;;;;24.10;12.07;;;10.90;99.90;;;;;;4239861;27;20100;-44
2020/12/05 09:59:25;;;;;;;31.87;14.40;;;11.00;99.90;;;;;;4239166;27;20046;-48
2020/12/05 10:01:29;;;;;;;21.57;11.20;;;11.00;99.90;;;;;;4239644;27;20084;-48
2020/12/05 10:03:30;;;;;;;22.90;11.20;;;11.10;99.90;;;;;;4240423;27;20111;-43
2020/12/05 10:05:31;;;;;;;19.23;10.90;;;11.00;99.90;;;;;;4238938;27;20031;-44
2020/12/05 10:07:32;;;;;;;26.43;12.53;;;11.10;99.90;;;;;;4239698;27;20051;-46
2020/12/05 10:09:34;;;;;;;28.23;12.33;;;11.10;99.90;;;;;;4239869;27;20761;-45
2020/12/05 10:11:35;;;;;;;22.73;12.10;;;11.20;99.90;;;;;;4241053;27;20031;-46
2020/12/05 10:13:36;;;;;;;18.60;11.03;;;11.20;99.90;;;;;;4239970;27;20030;-53
2020/12/05 10:15:38;;;;;;;28.77;11.20;;;11.20;99.90;;;;;;4240120;27;20043;-39
2020/12/05 10:17:40;;;;;;;21.90;11.07;;;11.30;99.90;;;;;;4238861;27;20043;-46
2020/12/05 10:19:41;;;;;;;19.87;10.13;;;11.30;99.90;;;;;;4239276;27;20031;-44
2020/12/05 10:21:49;;;;;;;21.27;10.77;;;11.50;99.90;;;;;;4238898;27;20080;-47
2020/12/05 10:23:50;;;;;;;19.50;10.87;;;11.50;99.90;;;;;;4240580;27;20069;-42
2020/12/05 10:25:51;;;;;;;21.90;11.43;;;11.50;99.90;;;;;;4239464;27;20493;-48
2020/12/05 10:27:52;;;;;;;21.53;11.33;;;11.50;99.90;;;;;;4240493;27;20023;-49
2020/12/05 10:29:54;;;;;;;22.37;10.73;;;11.50;99.90;;;;;;4238873;27;20104;-41
2020/12/05 10:31:55;;;;;;;24.50;12.10;;;11.40;99.90;;;;;;4239120;27;20092;-41
2020/12/05 10:33:56;;;;;;;22.93;10.83;;;11.50;99.90;;;;;;4240084;27;20019;-41